createdAt,value
2023-03-29T00:02:58.092Z,15.82
2023-03-29T00:06:05.074Z,15.80
2023-03-29T00:09:08.505Z,15.87
2023-03-29T00:12:11.964Z,15.82
2023-03-29T00:15:14.914Z,15.74
2023-03-29T00:18:17.090Z,15.78
2023-03-29T00:21:19.803Z,15.75
2023-03-29T00:24:23.995Z,15.83
2023-03-29T00:27:27.111Z,15.76
2023-03-29T00:30:29.368Z,15.84
2023-03-29T00:33:34.484Z,15.77
2023-03-29T00:36:36.597Z,15.75
2023-03-29T00:39:42.797Z,15.73
2023-03-29T00:42:46.591Z,15.69
2023-03-29T00:45:50.851Z,15.63
2023-03-29T00:48:58.938Z,15.64
2023-03-29T00:52:01.296Z,15.59
2023-03-29T00:55:11.054Z,15.53
2023-03-29T00:58:20.465Z,15.50
2023-03-29T01:01:34.529Z,15.43
2023-03-29T01:04:53.883Z,15.46
2023-03-29T01:08:25.897Z,15.49
2023-03-29T01:11:34.908Z,15.35
2023-03-29T01:15:00.024Z,15.45
2023-03-29T01:18:02.386Z,15.40
2023-03-29T01:21:29.803Z,15.30
2023-03-29T01:25:12.098Z,15.41
2023-03-29T01:28:23.402Z,15.37
2023-03-29T01:31:34.862Z,15.44
2023-03-29T01:34:43.020Z,15.44
2023-03-29T01:38:17.373Z,15.44
2023-03-29T01:41:20.281Z,15.41
2023-03-29T01:44:49.688Z,15.39
2023-03-29T01:48:22.792Z,15.35
2023-03-29T01:51:42.344Z,15.36
2023-03-29T01:54:56.252Z,15.39
2023-03-29T01:58:00.951Z,15.31
2023-03-29T02:01:11.077Z,15.27
2023-03-29T02:04:20.396Z,15.26
2023-03-29T02:07:30.888Z,15.24
2023-03-29T02:10:35.374Z,15.28
2023-03-29T02:13:38.600Z,15.29
2023-03-29T02:16:41.076Z,15.23
2023-03-29T02:19:46.309Z,15.22
2023-03-29T02:23:09.601Z,15.27
2023-03-29T02:26:14.776Z,15.29
2023-03-29T02:29:17.312Z,15.30
2023-03-29T02:32:33.918Z,15.31
2023-03-29T02:35:45.461Z,15.31
2023-03-29T02:38:47.851Z,15.31
2023-03-29T02:41:51.488Z,15.22
2023-03-29T02:44:57.912Z,15.19
2023-03-29T02:48:08.693Z,15.20
2023-03-29T02:51:20.225Z,15.20
2023-03-29T02:54:26.738Z,15.21
2023-03-29T02:57:30.639Z,15.30
2023-03-29T03:00:34.310Z,15.27
2023-03-29T03:03:36.809Z,15.24
2023-03-29T03:06:40.879Z,15.20
2023-03-29T03:09:45.826Z,15.24
2023-03-29T03:12:48.244Z,15.21
2023-03-29T03:15:51.096Z,15.26
2023-03-29T03:18:55.690Z,15.32
2023-03-29T03:21:58.603Z,15.29
2023-03-29T03:25:00.744Z,15.26
2023-03-29T03:28:03.100Z,15.29
2023-03-29T03:31:05.968Z,15.29
2023-03-29T03:34:28.354Z,15.33
2023-03-29T03:37:39.490Z,15.28
2023-03-29T03:40:42.767Z,15.29
2023-03-29T03:43:48.927Z,15.26
2023-03-29T03:46:53.580Z,15.26
2023-03-29T03:49:56.716Z,15.23
2023-03-29T03:53:00.989Z,15.28
2023-03-29T03:56:14.106Z,15.28
2023-03-29T03:59:34.287Z,15.34
2023-03-29T04:02:43.746Z,15.29
2023-03-29T04:05:47.357Z,15.34
2023-03-29T04:08:50.802Z,15.33
2023-03-29T04:12:06.477Z,15.25
2023-03-29T04:15:11.670Z,15.24
2023-03-29T04:18:26.511Z,15.35
2023-03-29T04:21:34.125Z,15.28
2023-03-29T04:24:36.761Z,15.52
2023-03-29T04:28:03.676Z,15.52
2023-03-29T04:31:18.111Z,15.39
2023-03-29T04:34:27.279Z,15.44
2023-03-29T04:37:31.967Z,15.38
2023-03-29T04:40:38.505Z,15.32
2023-03-29T04:43:48.558Z,15.37
2023-03-29T04:47:00.997Z,15.37
2023-03-29T04:50:26.610Z,15.54
2023-03-29T04:53:28.976Z,15.44
2023-03-29T04:56:36.887Z,15.32
2023-03-29T05:00:15.386Z,15.38
2023-03-29T05:03:45.800Z,15.40
2023-03-29T05:06:58.865Z,15.39
2023-03-29T05:10:02.086Z,15.44
2023-03-29T05:13:04.478Z,15.49
2023-03-29T05:16:08.057Z,15.43
2023-03-29T05:19:11.687Z,15.42
2023-03-29T05:22:17.757Z,15.49
2023-03-29T05:25:21.159Z,15.44
2023-03-29T05:28:23.376Z,15.47
2023-03-29T05:31:26.773Z,15.40
2023-03-29T05:34:32.125Z,15.38
2023-03-29T05:37:37.640Z,15.46
2023-03-29T05:40:41.578Z,15.44
2023-03-29T05:44:06.561Z,15.61
2023-03-29T05:47:10.128Z,16.58
2023-03-29T05:50:12.616Z,17.42
2023-03-29T05:53:16.531Z,18.21
2023-03-29T05:56:19.224Z,17.84
2023-03-29T05:59:21.349Z,19.02
2023-03-29T06:02:24.950Z,19.48
2023-03-29T06:05:29.809Z,18.80
2023-03-29T06:08:35.338Z,19.31
2023-03-29T06:11:59.072Z,19.27
2023-03-29T06:15:25.880Z,18.68
2023-03-29T06:18:35.456Z,18.98
2023-03-29T06:21:39.111Z,19.08
2023-03-29T06:24:43.732Z,19.10
2023-03-29T06:27:56.613Z,19.61
2023-03-29T06:31:03.412Z,20.02
2023-03-29T06:34:12.174Z,19.15
2023-03-29T06:37:49.863Z,19.31
2023-03-29T06:41:15.086Z,20.09
2023-03-29T06:44:36.400Z,20.00
2023-03-29T06:47:46.437Z,20.17
2023-03-29T06:50:49.534Z,20.42
2023-03-29T06:53:52.618Z,19.80
2023-03-29T06:56:57.739Z,19.97
2023-03-29T07:00:01.647Z,20.44
2023-03-29T07:03:25.851Z,19.85
2023-03-29T07:06:30.456Z,19.52
2023-03-29T07:09:33.697Z,20.30
2023-03-29T07:13:03.488Z,19.91
2023-03-29T07:16:06.884Z,19.41
2023-03-29T07:19:27.503Z,19.71
2023-03-29T07:22:29.641Z,20.06
2023-03-29T07:25:36.515Z,19.67
2023-03-29T07:28:39.967Z,19.41
2023-03-29T07:31:52.375Z,19.58
2023-03-29T07:35:21.324Z,19.60
2023-03-29T07:38:23.950Z,19.50
2023-03-29T07:41:49.783Z,19.71
2023-03-29T07:44:52.104Z,19.64
2023-03-29T07:47:58.721Z,19.33
2023-03-29T07:51:08.348Z,19.74
2023-03-29T07:54:39.684Z,19.67
2023-03-29T07:58:05.866Z,19.77
2023-03-29T08:01:11.063Z,19.73
2023-03-29T08:04:36.946Z,19.26
2023-03-29T08:07:47.922Z,19.53
2023-03-29T08:11:09.225Z,20.25
2023-03-29T08:14:35.226Z,19.78
2023-03-29T08:17:47.774Z,19.72
2023-03-29T08:20:51.273Z,20.36
2023-03-29T08:23:53.531Z,20.07
2023-03-29T08:27:14.854Z,20.07
2023-03-29T08:30:17.493Z,20.23
2023-03-29T08:33:20.546Z,20.22
2023-03-29T08:36:29.914Z,20.26
2023-03-29T08:39:39.026Z,20.21
2023-03-29T08:43:09.372Z,20.47
2023-03-29T08:47:00.937Z,20.09
2023-03-29T08:50:15.085Z,20.23
2023-03-29T08:53:31.382Z,20.44
2023-03-29T08:56:47.647Z,20.46
2023-03-29T09:00:05.603Z,20.25
2023-03-29T09:03:23.241Z,20.50
2023-03-29T09:06:28.807Z,20.38
2023-03-29T09:09:42.052Z,20.01
2023-03-29T09:13:11.529Z,20.41
2023-03-29T09:16:20.173Z,20.44
2023-03-29T09:19:36.796Z,20.40
2023-03-29T09:23:16.471Z,20.18
2023-03-29T09:27:10.314Z,20.05
2023-03-29T09:30:26.387Z,20.18
2023-03-29T09:33:44.519Z,20.31
2023-03-29T09:37:10.051Z,20.12
2023-03-29T09:40:22.816Z,19.88
2023-03-29T09:43:53.467Z,19.95
2023-03-29T09:47:07.580Z,19.68
2023-03-29T09:50:34.333Z,19.88
2023-03-29T09:53:41.564Z,20.25
2023-03-29T09:56:56.120Z,20.16
2023-03-29T10:00:04.342Z,19.95
2023-03-29T10:03:21.694Z,20.05
2023-03-29T10:06:35.912Z,20.00
2023-03-29T10:09:38.438Z,19.89
2023-03-29T10:12:54.392Z,19.91
2023-03-29T10:16:02.428Z,20.18
2023-03-29T10:19:25.112Z,19.76
2023-03-29T10:22:37.860Z,19.83
2023-03-29T10:25:43.378Z,19.93
2023-03-29T10:28:55.299Z,19.53
2023-03-29T10:31:57.408Z,19.88
2023-03-29T10:35:23.513Z,20.08
2023-03-29T10:38:41.855Z,19.97
2023-03-29T10:41:44.905Z,19.77
2023-03-29T10:45:00.416Z,20.13
2023-03-29T10:48:07.003Z,20.34
2023-03-29T10:51:09.097Z,20.28
2023-03-29T10:54:15.963Z,20.13
2023-03-29T10:57:55.502Z,20.04
2023-03-29T11:00:58.505Z,19.87
2023-03-29T11:04:28.676Z,20.09
2023-03-29T11:07:38.887Z,20.01
2023-03-29T11:11:10.033Z,19.57
2023-03-29T11:14:50.235Z,19.99
2023-03-29T11:17:55.153Z,19.57
2023-03-29T11:21:34.462Z,19.83
2023-03-29T11:24:50.588Z,20.29
2023-03-29T11:28:50.832Z,19.85
2023-03-29T11:32:19.543Z,20.15
2023-03-29T11:35:53.681Z,20.22
2023-03-29T11:39:22.516Z,19.75
2023-03-29T11:42:32.310Z,20.17
2023-03-29T11:45:52.897Z,20.06
2023-03-29T11:49:06.922Z,19.87
2023-03-29T11:52:29.808Z,20.16
2023-03-29T11:59:58.008Z,20.04
2023-03-29T12:03:10.614Z,20.33
2023-03-29T12:06:41.116Z,20.12
2023-03-29T12:09:53.422Z,20.14
2023-03-29T12:13:01.916Z,20.48
2023-03-29T12:16:30.823Z,20.36
2023-03-29T12:19:43.572Z,19.72
2023-03-29T12:22:50.998Z,20.35
2023-03-29T12:26:12.100Z,20.43
2023-03-29T12:29:54.429Z,20.37
2023-03-29T12:33:42.641Z,20.49
2023-03-29T12:37:12.713Z,20.55
2023-03-29T12:40:42.763Z,20.29
2023-03-29T12:44:04.913Z,20.68
2023-03-29T12:47:32.510Z,20.54
2023-03-29T12:50:53.180Z,20.00
2023-03-29T12:54:03.465Z,20.53
2023-03-29T13:01:06.354Z,20.31
2023-03-29T13:04:20.957Z,20.55
2023-03-29T13:07:23.180Z,20.62
2023-03-29T13:10:42.800Z,20.45
2023-03-29T13:13:45.377Z,20.63
2023-03-29T13:16:50.197Z,20.65
2023-03-29T13:20:13.680Z,20.32
2023-03-29T13:23:34.641Z,20.48
2023-03-29T13:26:56.629Z,20.55
2023-03-29T13:30:38.024Z,20.51
2023-03-29T13:33:57.288Z,20.85
2023-03-29T13:37:19.197Z,20.62
2023-03-29T13:40:47.169Z,20.19
2023-03-29T13:43:54.397Z,20.56
2023-03-29T13:47:24.571Z,20.79
2023-03-29T13:50:51.925Z,20.25
2023-03-29T13:54:42.917Z,20.79
2023-03-29T13:58:40.744Z,20.39
2023-03-29T14:01:47.748Z,20.17
2023-03-29T14:04:53.505Z,20.33
2023-03-29T14:07:57.933Z,21.07
2023-03-29T14:11:05.590Z,20.50
2023-03-29T14:14:10.786Z,20.05
2023-03-29T14:17:23.129Z,20.72
2023-03-29T14:20:26.176Z,20.46
2023-03-29T14:23:31.822Z,19.97
2023-03-29T14:26:36.186Z,20.73
2023-03-29T14:29:39.037Z,20.52
2023-03-29T14:32:41.705Z,20.32
2023-03-29T14:35:47.436Z,20.15
2023-03-29T14:39:09.716Z,20.61
2023-03-29T14:42:21.007Z,20.33
2023-03-29T14:45:23.948Z,20.08
2023-03-29T14:48:29.050Z,20.41
2023-03-29T14:51:31.826Z,20.47
2023-03-29T14:54:36.473Z,20.33
2023-03-29T14:58:16.533Z,20.41
2023-03-29T15:01:24.005Z,20.38
2023-03-29T15:04:35.034Z,20.36
2023-03-29T15:07:42.196Z,20.59
2023-03-29T15:10:46.677Z,20.32
2023-03-29T15:14:10.955Z,19.96
2023-03-29T15:17:50.514Z,22.16
2023-03-29T15:20:54.922Z,21.48
2023-03-29T15:24:58.102Z,20.29
2023-03-29T15:28:04.866Z,20.42
2023-03-29T15:31:16.007Z,20.74
2023-03-29T15:34:31.178Z,20.89
2023-03-29T15:37:36.227Z,21.57
2023-03-29T15:40:38.564Z,21.31
2023-03-29T15:43:43.522Z,20.75
2023-03-29T15:46:47.330Z,20.78
2023-03-29T15:49:52.169Z,20.97
2023-03-29T15:53:14.187Z,20.91
2023-03-29T15:56:23.111Z,20.43
2023-03-29T15:59:26.587Z,20.97
2023-03-29T16:02:29.533Z,20.80
2023-03-29T16:05:32.154Z,20.67
2023-03-29T16:08:34.245Z,20.67
2023-03-29T16:11:39.416Z,20.42
2023-03-29T16:14:44.389Z,20.05
2023-03-29T16:17:47.932Z,19.99
2023-03-29T16:20:53.168Z,20.01
2023-03-29T16:23:59.721Z,20.12
2023-03-29T16:27:04.248Z,19.87
2023-03-29T16:30:10.930Z,20.08
2023-03-29T16:33:17.669Z,20.11
2023-03-29T16:36:19.939Z,19.76
2023-03-29T16:39:24.891Z,20.09
2023-03-29T16:42:28.165Z,20.28
2023-03-29T16:45:31.058Z,20.26
2023-03-29T16:48:33.347Z,20.16
2023-03-29T16:51:37.566Z,20.43
2023-03-29T16:54:39.682Z,20.13
2023-03-29T16:57:42.800Z,20.13
2023-03-29T17:04:10.124Z,20.41
2023-03-29T17:07:12.596Z,20.50
2023-03-29T17:10:14.842Z,20.10
2023-03-29T17:13:17.404Z,20.37
2023-03-29T17:16:20.446Z,20.19
2023-03-29T17:19:22.924Z,20.13
2023-03-29T17:22:25.412Z,20.50
2023-03-29T17:25:31.751Z,20.96
2023-03-29T17:28:34.707Z,20.79
2023-03-29T17:31:47.042Z,20.53
2023-03-29T17:34:49.737Z,20.90
2023-03-29T17:37:53.418Z,20.91
2023-03-29T17:40:56.194Z,20.70
2023-03-29T17:43:58.510Z,20.56
2023-03-29T17:47:03.787Z,20.89
2023-03-29T17:50:08.302Z,20.72
2023-03-29T17:53:10.452Z,21.00
2023-03-29T17:56:15.448Z,21.00
2023-03-29T17:59:18.666Z,20.66
2023-03-29T18:02:25.018Z,20.69
2023-03-29T18:05:29.532Z,20.50
2023-03-29T18:08:36.125Z,20.44
2023-03-29T18:11:41.585Z,20.31
2023-03-29T18:14:47.877Z,20.38
2023-03-29T18:17:50.199Z,20.49
2023-03-29T18:20:52.903Z,20.59
2023-03-29T18:23:57.032Z,20.85
2023-03-29T18:27:00.142Z,20.32
2023-03-29T18:30:02.674Z,20.31
2023-03-29T18:33:05.361Z,20.87
2023-03-29T18:36:12.616Z,20.49
2023-03-29T18:39:20.728Z,20.39
2023-03-29T18:42:23.531Z,20.31
2023-03-29T18:45:25.893Z,20.07
2023-03-29T18:48:27.985Z,19.85
2023-03-29T18:51:31.246Z,19.86
2023-03-29T18:54:36.660Z,19.78
2023-03-29T18:57:39.302Z,19.66
2023-03-29T19:00:43.673Z,19.58
2023-03-29T19:03:46.017Z,19.33
2023-03-29T19:06:49.538Z,19.26
2023-03-29T19:09:51.618Z,19.14
2023-03-29T19:12:54.073Z,19.04
2023-03-29T19:15:59.404Z,19.03
2023-03-29T19:19:02.735Z,18.93
2023-03-29T19:22:04.930Z,18.77
2023-03-29T19:25:07.779Z,18.66
2023-03-29T19:28:10.548Z,18.60
2023-03-29T19:31:12.780Z,18.53
2023-03-29T19:34:15.805Z,18.34
2023-03-29T19:37:19.518Z,18.11
2023-03-29T19:40:23.808Z,18.06
2023-03-29T19:43:26.074Z,17.85
2023-03-29T19:46:29.381Z,17.71
2023-03-29T19:49:32.560Z,17.52
2023-03-29T19:52:35.677Z,17.54
2023-03-29T19:55:39.777Z,17.56
2023-03-29T19:58:42.176Z,17.41
2023-03-29T20:01:51.179Z,17.34
2023-03-29T20:04:55.216Z,17.29
2023-03-29T20:07:59.413Z,17.30
2023-03-29T20:11:10.604Z,17.13
2023-03-29T20:14:13.241Z,17.02
2023-03-29T20:17:16.674Z,17.19
2023-03-29T20:20:19.350Z,17.06
2023-03-29T20:23:23.942Z,17.03
2023-03-29T20:26:29.248Z,17.01
2023-03-29T20:29:33.357Z,16.95
2023-03-29T20:32:38.825Z,17.03
2023-03-29T20:35:46.925Z,16.84
2023-03-29T20:38:51.702Z,16.94
2023-03-29T20:41:54.391Z,16.85
2023-03-29T20:44:57.713Z,16.71
2023-03-29T20:48:03.042Z,16.83
2023-03-29T20:51:10.420Z,16.72
2023-03-29T20:54:12.483Z,16.75
2023-03-29T20:57:17.288Z,16.65
2023-03-29T21:00:20.863Z,16.68
2023-03-29T21:03:23.079Z,16.65
2023-03-29T21:06:25.224Z,16.63
2023-03-29T21:09:27.225Z,16.63
2023-03-29T21:12:29.669Z,16.67
2023-03-29T21:15:32.122Z,16.56
2023-03-29T21:18:37.339Z,16.65
2023-03-29T21:21:41.756Z,16.60
2023-03-29T21:24:44.029Z,16.68
2023-03-29T21:27:48.938Z,16.63
2023-03-29T21:30:53.768Z,16.49
2023-03-29T21:33:58.284Z,16.60
2023-03-29T21:37:00.631Z,16.52
2023-03-29T21:40:06.185Z,16.44
2023-03-29T21:43:08.959Z,16.48
2023-03-29T21:46:14.985Z,16.39
2023-03-29T21:49:17.433Z,16.34
2023-03-29T21:53:00.055Z,16.34
2023-03-29T21:56:02.320Z,16.33
2023-03-29T21:59:04.474Z,16.23
2023-03-29T22:02:07.005Z,16.27
2023-03-29T22:05:09.296Z,16.30
2023-03-29T22:08:11.859Z,16.24
2023-03-29T22:11:19.014Z,16.24
2023-03-29T22:14:22.175Z,16.16
2023-03-29T22:17:31.231Z,16.13
2023-03-29T22:20:34.460Z,16.07
2023-03-29T22:23:46.689Z,16.04
2023-03-29T22:26:48.788Z,16.09
2023-03-29T22:29:50.904Z,16.16
2023-03-29T22:32:53.090Z,16.17
2023-03-29T22:35:55.244Z,16.19
2023-03-29T22:39:25.152Z,16.12
2023-03-29T22:42:27.338Z,16.10
2023-03-29T22:45:29.410Z,16.09
2023-03-29T22:48:31.623Z,16.04
2023-03-29T22:51:34.720Z,16.01
2023-03-29T22:54:36.892Z,15.96
2023-03-29T22:57:41.771Z,15.95
2023-03-29T23:00:47.112Z,15.91
2023-03-29T23:03:52.149Z,15.91
2023-03-29T23:06:54.406Z,15.93
2023-03-29T23:09:56.651Z,15.85
2023-03-29T23:13:09.007Z,15.84
2023-03-29T23:16:11.247Z,15.89
2023-03-29T23:19:13.772Z,15.90
2023-03-29T23:22:16.719Z,15.73
2023-03-29T23:25:18.791Z,15.86
2023-03-29T23:28:23.859Z,15.80
2023-03-29T23:31:26.051Z,15.79
2023-03-29T23:34:28.221Z,15.76
2023-03-29T23:37:30.676Z,15.74
2023-03-29T23:40:33.517Z,15.70
2023-03-29T23:43:40.702Z,15.63
2023-03-29T23:46:43.947Z,15.60
2023-03-29T23:49:47.044Z,15.59
2023-03-29T23:52:51.779Z,15.54
2023-03-29T23:56:00.599Z,15.51
2023-03-29T23:59:03.522Z,15.42
